Time;durP1;ratioP1;P1;durP2;ratioP2;P2;SDS_P1;SDS_P2;PMS_P1;PMS_P2;Temp;Humidity;BMP_temperature;BMP_pressure;BME280_temperature;BME280_humidity;BME280_pressure;Samples;Min_cycle;Max_cycle;Signal;HPM_P1;HPM_P2
2024/03/08 00:02:24;;;;;;;63.72;33.35;;;3.60;99.90;;;;;;5038320;28;20252;-72
2024/03/08 00:04:50;;;;;;;65.10;35.88;;;3.50;99.90;;;;;;5034015;28;20229;-72
2024/03/08 00:07:16;;;;;;;66.15;36.05;;;3.60;99.90;;;;;;5028578;28;20329;-72
2024/03/08 00:09:42;;;;;;;64.47;34.25;;;3.50;99.90;;;;;;5027305;28;20188;-71
2024/03/08 00:12:08;;;;;;;65.70;35.28;;;3.60;99.90;;;;;;5034871;28;22012;-73
2024/03/08 00:14:37;;;;;;;67.05;35.88;;;3.50;99.90;;;;;;5034982;28;20201;-71
2024/03/08 00:17:03;;;;;;;67.35;36.60;;;3.50;99.90;;;;;;5029891;28;20688;-72
2024/03/08 00:19:29;;;;;;;64.70;35.95;;;3.50;99.90;;;;;;5031503;28;20183;-71
2024/03/08 00:21:55;;;;;;;67.47;36.15;;;3.60;99.90;;;;;;5031070;28;20214;-72
2024/03/08 00:24:25;;;;;;;73.13;36.90;;;3.50;99.90;;;;;;5032599;28;20211;-72
2024/03/08 00:26:50;;;;;;;67.90;36.15;;;3.50;99.90;;;;;;5031413;28;21871;-72
2024/03/08 00:29:16;;;;;;;73.75;37.08;;;3.50;99.90;;;;;;5026264;28;20227;-72
2024/03/08 00:31:42;;;;;;;72.28;37.47;;;3.50;99.90;;;;;;5034920;28;20209;-73
2024/03/08 00:34:11;;;;;;;65.55;34.15;;;3.50;99.90;;;;;;5029465;28;20242;-73
2024/03/08 00:36:37;;;;;;;69.47;35.92;;;3.50;99.90;;;;;;5028531;28;20203;-70
2024/03/08 00:39:06;;;;;;;60.70;32.33;;;3.50;99.90;;;;;;5027604;28;20262;-74
2024/03/08 00:41:33;;;;;;;67.50;36.45;;;3.50;99.90;;;;;;5030704;28;20214;-73
2024/03/08 00:43:59;;;;;;;67.45;36.25;;;3.50;99.90;;;;;;5028258;28;20301;-73
2024/03/08 00:46:24;;;;;;;75.28;37.92;;;3.50;99.90;;;;;;5029554;28;20292;-72
2024/03/08 00:48:50;;;;;;;72.22;36.92;;;3.50;99.90;;;;;;4994279;28;20223;-74
2024/03/08 00:51:16;;;;;;;71.63;37.85;;;3.40;99.90;;;;;;5032565;28;20270;-71
2024/03/08 00:53:42;;;;;;;72.45;36.92;;;3.40;99.90;;;;;;5028290;28;20623;-72
2024/03/08 00:56:11;;;;;;;67.70;36.78;;;3.40;99.90;;;;;;5007305;28;20203;-73
2024/03/08 00:58:37;;;;;;;71.88;36.65;;;3.40;99.90;;;;;;4992539;28;20208;-73
2024/03/08 01:01:04;;;;;;;67.22;36.90;;;3.40;99.90;;;;;;5029346;28;20203;-73
2024/03/08 01:03:34;;;;;;;68.88;36.05;;;3.30;99.90;;;;;;5031835;28;20196;-71
2024/03/08 01:06:04;;;;;;;75.95;37.55;;;3.30;99.90;;;;;;5030653;28;20187;-72
2024/03/08 01:08:30;;;;;;;70.63;36.67;;;3.30;99.90;;;;;;5032623;28;20301;-71
2024/03/08 01:10:56;;;;;;;55.40;28.83;;;3.30;99.90;;;;;;5031640;28;20282;-72
2024/03/08 01:13:21;;;;;;;68.75;36.55;;;3.30;99.90;;;;;;5025747;28;20224;-71
2024/03/08 01:15:47;;;;;;;74.28;37.03;;;3.20;99.90;;;;;;5029936;28;20191;-72
2024/03/08 01:18:13;;;;;;;75.85;37.45;;;3.20;99.90;;;;;;5031884;28;20187;-74
2024/03/08 01:20:41;;;;;;;68.80;36.78;;;3.20;99.90;;;;;;5027410;28;20203;-72
2024/03/08 01:23:07;;;;;;;62.03;34.03;;;3.20;99.90;;;;;;5027685;28;20258;-71
2024/03/08 01:25:33;;;;;;;70.43;38.22;;;3.20;99.90;;;;;;5028200;28;20179;-71
2024/03/08 01:27:59;;;;;;;71.22;37.45;;;3.20;99.90;;;;;;5008255;28;20331;-71
2024/03/08 01:30:25;;;;;;;60.85;30.25;;;3.10;99.90;;;;;;5019611;28;20418;-72
2024/03/08 01:32:51;;;;;;;70.45;37.05;;;3.10;99.90;;;;;;5032024;28;20202;-73
2024/03/08 01:35:18;;;;;;;68.80;36.85;;;3.10;99.90;;;;;;5035732;28;20192;-72
2024/03/08 01:37:44;;;;;;;68.72;36.83;;;3.10;99.90;;;;;;5030115;28;20183;-73
2024/03/08 01:40:10;;;;;;;70.45;37.15;;;3.10;99.90;;;;;;5036366;28;20203;-71
2024/03/08 01:42:38;;;;;;;68.82;36.95;;;3.10;99.90;;;;;;5032837;28;20932;-72
2024/03/08 01:45:06;;;;;;;74.82;38.92;;;3.00;99.90;;;;;;5036713;28;20196;-71
2024/03/08 01:47:32;;;;;;;71.03;37.58;;;3.00;99.90;;;;;;5034505;28;20211;-73
2024/03/08 01:50:01;;;;;;;70.28;37.75;;;3.00;99.90;;;;;;5016744;28;20199;-71
2024/03/08 01:52:28;;;;;;;70.78;37.20;;;3.00;99.90;;;;;;5031015;28;20203;-71
2024/03/08 01:54:54;;;;;;;70.28;37.40;;;2.90;99.90;;;;;;5037633;28;20201;-70
2024/03/08 01:57:21;;;;;;;65.03;32.33;;;2.90;99.90;;;;;;5034355;28;20967;-71
2024/03/08 01:59:47;;;;;;;68.75;36.90;;;2.90;99.90;;;;;;5034555;28;20199;-74
2024/03/08 02:02:17;;;;;;;66.47;36.10;;;2.90;99.90;;;;;;5027176;28;20273;-73
2024/03/08 02:04:44;;;;;;;68.57;36.72;;;2.90;99.90;;;;;;5030698;28;20188;-73
2024/03/08 02:07:10;;;;;;;71.45;35.67;;;2.80;99.90;;;;;;5034708;28;20187;-72
2024/03/08 02:09:35;;;;;;;70.22;36.33;;;2.80;99.90;;;;;;5035295;28;20196;-71
2024/03/08 02:12:01;;;;;;;62.60;34.90;;;2.80;99.90;;;;;;5032835;28;20238;-73
2024/03/08 02:14:33;;;;;;;69.32;35.25;;;2.80;99.90;;;;;;5011800;28;20287;-72
2024/03/08 02:17:01;;;;;;;61.50;33.15;;;2.80;99.90;;;;;;5033937;28;20286;-72
2024/03/08 02:19:27;;;;;;;58.35;32.25;;;2.80;99.90;;;;;;5028490;28;20589;-72
2024/03/08 02:21:53;;;;;;;59.80;35.53;;;2.70;99.90;;;;;;5031419;28;20203;-71
2024/03/08 02:24:19;;;;;;;61.10;34.05;;;2.70;99.90;;;;;;5028833;28;20187;-70
2024/03/08 02:26:45;;;;;;;61.10;31.73;;;2.70;99.90;;;;;;5035863;28;20238;-71
2024/03/08 02:29:12;;;;;;;64.47;34.47;;;2.70;99.90;;;;;;5031668;28;20269;-70
2024/03/08 02:31:39;;;;;;;68.47;34.47;;;2.70;99.90;;;;;;5035362;28;20214;-71
2024/03/08 02:34:05;;;;;;;63.13;32.78;;;2.70;99.90;;;;;;5013356;28;20200;-71
2024/03/08 02:36:34;;;;;;;65.47;34.67;;;2.70;99.90;;;;;;5033751;28;20541;-72
2024/03/08 02:39:02;;;;;;;65.65;32.92;;;2.70;99.90;;;;;;5032025;28;20523;-72
2024/03/08 02:41:28;;;;;;;58.80;34.38;;;2.70;99.90;;;;;;5031826;28;20197;-72
2024/03/08 02:43:55;;;;;;;57.58;31.98;;;2.60;99.90;;;;;;5022315;28;20653;-73
2024/03/08 02:46:21;;;;;;;57.20;26.92;;;2.70;99.90;;;;;;5000866;28;20278;-73
2024/03/08 02:48:46;;;;;;;56.80;31.80;;;2.60;99.90;;;;;;5032533;28;20211;-72
2024/03/08 02:51:13;;;;;;;61.88;30.42;;;2.60;99.90;;;;;;5016864;28;21204;-72
2024/03/08 02:53:39;;;;;;;57.22;31.25;;;2.60;99.90;;;;;;5031768;28;20253;-73
2024/03/08 02:56:08;;;;;;;59.20;30.50;;;2.60;99.90;;;;;;5028160;28;20645;-72
2024/03/08 02:58:34;;;;;;;58.67;28.55;;;2.60;99.90;;;;;;5031198;28;20191;-74
2024/03/08 03:01:00;;;;;;;59.50;32.08;;;2.60;99.90;;;;;;5033506;28;20183;-73
2024/03/08 03:03:26;;;;;;;63.53;31.98;;;2.60;99.90;;;;;;5029673;28;20207;-73
2024/03/08 03:05:55;;;;;;;57.17;30.40;;;2.60;99.90;;;;;;5027280;28;20195;-72
2024/03/08 03:08:21;;;;;;;58.40;30.92;;;2.60;99.90;;;;;;5024554;28;20220;-72
2024/03/08 03:10:47;;;;;;;57.00;30.05;;;2.50;99.90;;;;;;5033766;28;20190;-72
2024/03/08 03:13:14;;;;;;;55.45;29.92;;;2.50;99.90;;;;;;5030608;28;20191;-73
2024/03/08 03:15:42;;;;;;;65.30;32.97;;;2.50;99.90;;;;;;5031813;28;20211;-72
2024/03/08 03:18:08;;;;;;;61.28;30.40;;;2.50;99.90;;;;;;5035439;28;20234;-73
2024/03/08 03:20:39;;;;;;;58.38;30.67;;;2.50;99.90;;;;;;5032307;28;20229;-72
2024/03/08 03:23:08;;;;;;;52.47;28.40;;;2.50;99.90;;;;;;5028731;28;20203;-72
2024/03/08 03:25:35;;;;;;;57.10;31.15;;;2.50;99.90;;;;;;5006339;28;20195;-73
2024/03/08 03:28:04;;;;;;;58.28;29.88;;;2.50;99.90;;;;;;5031625;28;20285;-72
2024/03/08 03:30:33;;;;;;;55.58;30.92;;;2.50;99.90;;;;;;5034930;28;20676;-71
2024/03/08 03:33:09;;;;;;;48.75;28.02;;;2.40;99.90;;;;;;5025701;28;20169;-74
2024/03/08 03:35:36;;;;;;;50.83;26.35;;;2.40;99.90;;;;;;5034308;28;20252;-73
2024/03/08 03:38:07;;;;;;;56.13;28.60;;;2.40;99.90;;;;;;5008767;28;20230;-73
2024/03/08 03:40:34;;;;;;;52.13;28.10;;;2.40;99.90;;;;;;5028392;28;20710;-73
2024/03/08 03:43:01;;;;;;;48.38;25.23;;;2.40;99.90;;;;;;5026349;28;20195;-72
2024/03/08 03:45:27;;;;;;;57.28;30.23;;;2.40;99.90;;;;;;5033824;28;20171;-75
2024/03/08 03:47:52;;;;;;;53.33;30.38;;;2.40;99.90;;;;;;5027543;28;20582;-73
2024/03/08 03:50:19;;;;;;;52.63;29.77;;;2.40;99.90;;;;;;5033031;28;20189;-72
2024/03/08 03:52:48;;;;;;;60.35;31.38;;;2.30;99.90;;;;;;5034415;28;20216;-72
2024/03/08 03:55:14;;;;;;;57.85;31.17;;;2.40;99.90;;;;;;5028409;28;20751;-72
2024/03/08 03:57:40;;;;;;;58.20;30.27;;;2.30;99.90;;;;;;5025987;28;20205;-72
2024/03/08 04:00:10;;;;;;;53.78;28.35;;;2.30;99.90;;;;;;5028457;28;20236;-72
2024/03/08 04:02:43;;;;;;;57.78;31.48;;;2.30;99.90;;;;;;5031374;28;21295;-73
2024/03/08 04:05:10;;;;;;;55.42;29.67;;;2.30;99.90;;;;;;5010156;28;20223;-72
2024/03/08 04:07:37;;;;;;;54.83;29.35;;;2.30;99.90;;;;;;5036039;28;20297;-73
2024/03/08 04:10:06;;;;;;;53.53;30.90;;;2.30;99.90;;;;;;4998094;28;20188;-74
2024/03/08 04:12:35;;;;;;;60.38;29.33;;;2.20;99.90;;;;;;5032399;28;20187;-73
2024/03/08 04:15:01;;;;;;;50.55;27.05;;;2.20;99.90;;;;;;5030830;28;20187;-72
2024/03/08 04:17:27;;;;;;;51.47;28.65;;;2.20;99.90;;;;;;5030344;28;20183;-74
2024/03/08 04:19:53;;;;;;;51.95;29.35;;;2.20;99.90;;;;;;5027263;28;21955;-73
2024/03/08 04:22:19;;;;;;;50.78;28.38;;;2.20;99.90;;;;;;5028308;28;20184;-72
2024/03/08 04:24:45;;;;;;;54.08;29.50;;;2.20;99.90;;;;;;5033651;28;20215;-73
2024/03/08 04:27:11;;;;;;;58.65;30.27;;;2.10;99.90;;;;;;5031228;28;20223;-73
2024/03/08 04:29:38;;;;;;;58.38;28.55;;;2.10;99.90;;;;;;5031281;28;20287;-72
2024/03/08 04:32:05;;;;;;;55.30;28.02;;;2.10;99.90;;;;;;5021684;28;20211;-72
2024/03/08 04:34:31;;;;;;;56.50;28.67;;;2.10;99.90;;;;;;5033481;28;20191;-72
2024/03/08 04:36:58;;;;;;;52.05;28.33;;;2.00;99.90;;;;;;5029900;28;20265;-73
2024/03/08 04:39:24;;;;;;;52.55;29.52;;;2.10;99.90;;;;;;5029875;28;20188;-73
2024/03/08 04:41:50;;;;;;;52.40;28.73;;;2.00;99.90;;;;;;5031984;28;20744;-72
2024/03/08 04:44:17;;;;;;;57.15;29.98;;;2.00;99.90;;;;;;5032089;28;20191;-73
2024/03/08 04:46:44;;;;;;;54.38;29.48;;;2.10;99.90;;;;;;5032538;28;20183;-72
2024/03/08 04:49:11;;;;;;;55.70;28.75;;;2.00;99.90;;;;;;5038626;28;20203;-72
2024/03/08 04:51:37;;;;;;;48.50;25.30;;;2.00;99.90;;;;;;5028113;28;20237;-74
2024/03/08 04:54:04;;;;;;;53.38;27.80;;;2.00;99.90;;;;;;5034979;28;20183;-73
2024/03/08 04:56:31;;;;;;;58.30;29.90;;;2.00;99.90;;;;;;5031707;28;20196;-73
2024/03/08 04:58:57;;;;;;;50.95;28.38;;;2.00;99.90;;;;;;5021393;28;20211;-72
2024/03/08 05:01:23;;;;;;;54.15;28.08;;;1.90;99.90;;;;;;5030507;28;20199;-72
2024/03/08 05:03:50;;;;;;;52.65;28.15;;;2.00;99.90;;;;;;5032287;28;20222;-73
2024/03/08 05:06:20;;;;;;;58.88;27.27;;;1.90;99.90;;;;;;5029826;28;20198;-73
2024/03/08 05:08:46;;;;;;;52.38;27.08;;;1.90;99.90;;;;;;5029956;28;20215;-73
2024/03/08 05:11:14;;;;;;;51.88;27.35;;;1.90;99.90;;;;;;5034061;28;20199;-72
2024/03/08 05:13:40;;;;;;;45.78;24.42;;;1.90;99.90;;;;;;5025646;28;20191;-72
2024/03/08 05:16:07;;;;;;;54.20;27.52;;;1.90;99.90;;;;;;5035503;28;20207;-73
2024/03/08 05:18:34;;;;;;;39.58;20.90;;;1.90;99.90;;;;;;5032160;28;20184;-72
2024/03/08 05:20:59;;;;;;;47.55;26.90;;;1.90;99.90;;;;;;5035608;28;20310;-72
2024/03/08 05:23:25;;;;;;;46.28;23.48;;;1.90;99.90;;;;;;5036509;28;20307;-72
2024/03/08 05:25:51;;;;;;;35.25;17.30;;;1.90;99.90;;;;;;5036291;28;20196;-72
2024/03/08 05:28:17;;;;;;;48.20;26.75;;;1.90;99.90;;;;;;5036258;28;20231;-72
2024/03/08 05:30:43;;;;;;;49.38;26.42;;;1.90;99.90;;;;;;5038096;28;21364;-72
2024/03/08 05:33:14;;;;;;;52.25;27.80;;;1.90;99.90;;;;;;5035926;28;20215;-73
2024/03/08 05:35:40;;;;;;;45.33;25.27;;;1.80;99.90;;;;;;5030190;28;21019;-72
2024/03/08 05:38:06;;;;;;;52.67;26.17;;;1.80;99.90;;;;;;5033871;28;20187;-71
2024/03/08 05:40:32;;;;;;;43.55;24.58;;;1.80;99.90;;;;;;5033215;28;20207;-73
2024/03/08 05:43:02;;;;;;;55.40;28.08;;;1.80;99.90;;;;;;5033294;28;20192;-72
2024/03/08 05:45:28;;;;;;;44.88;22.67;;;1.80;99.90;;;;;;5036042;28;20697;-73
2024/03/08 05:47:53;;;;;;;47.30;25.90;;;1.80;99.90;;;;;;5027901;28;20308;-72
2024/03/08 05:50:19;;;;;;;44.80;24.15;;;1.80;99.90;;;;;;5031587;28;20223;-72
2024/03/08 05:52:45;;;;;;;51.42;27.50;;;1.70;99.90;;;;;;5031651;28;20593;-72
2024/03/08 05:55:14;;;;;;;49.63;26.90;;;1.80;99.90;;;;;;5034445;28;20195;-71
2024/03/08 05:57:40;;;;;;;54.88;26.67;;;1.80;99.90;;;;;;5029830;28;20460;-73
2024/03/08 06:00:06;;;;;;;49.05;25.75;;;1.80;99.90;;;;;;5030167;28;20202;-76
2024/03/08 06:02:40;;;;;;;48.28;27.30;;;1.80;99.90;;;;;;5032555;28;20184;-74
2024/03/08 06:05:10;;;;;;;48.55;26.42;;;1.70;99.90;;;;;;5034680;28;20206;-72
2024/03/08 06:07:40;;;;;;;48.72;26.13;;;1.70;99.90;;;;;;5031720;28;20349;-70
2024/03/08 06:10:09;;;;;;;45.83;25.60;;;1.70;99.90;;;;;;5026441;28;20322;-75
2024/03/08 06:12:40;;;;;;;47.30;24.85;;;1.70;99.90;;;;;;5037022;28;20180;-76
2024/03/08 06:15:09;;;;;;;48.42;26.10;;;1.70;99.90;;;;;;5028648;28;20282;-73
2024/03/08 06:17:36;;;;;;;45.17;24.33;;;1.70;99.90;;;;;;5037292;28;20220;-71
2024/03/08 06:20:03;;;;;;;46.97;27.10;;;1.70;99.90;;;;;;5033686;28;21247;-70
2024/03/08 06:22:30;;;;;;;46.47;25.30;;;1.80;99.90;;;;;;5008001;28;20200;-70
2024/03/08 06:24:56;;;;;;;53.92;25.83;;;1.80;99.90;;;;;;5034274;28;20746;-74
2024/03/08 06:27:22;;;;;;;35.78;19.38;;;1.80;99.90;;;;;;5033799;28;20235;-73
2024/03/08 06:29:49;;;;;;;52.03;27.48;;;1.80;99.90;;;;;;5027364;28;21326;-72
2024/03/08 06:32:15;;;;;;;50.03;26.80;;;1.80;99.90;;;;;;5033381;28;21039;-71
2024/03/08 06:34:41;;;;;;;47.17;25.35;;;1.80;99.90;;;;;;5029297;28;20554;-72
2024/03/08 06:37:07;;;;;;;46.28;25.00;;;1.80;99.90;;;;;;5035762;28;20188;-72
2024/03/08 06:39:34;;;;;;;52.08;26.58;;;1.80;99.90;;;;;;5031101;28;20209;-74
2024/03/08 06:42:00;;;;;;;50.33;26.13;;;1.90;99.90;;;;;;5026625;28;20210;-73
2024/03/08 06:44:25;;;;;;;49.13;26.83;;;1.90;99.90;;;;;;5030023;28;20188;-73
2024/03/08 06:46:51;;;;;;;50.33;26.15;;;1.90;99.90;;;;;;5012528;28;20207;-73
2024/03/08 06:49:17;;;;;;;50.67;26.17;;;1.90;99.90;;;;;;5030011;28;20223;-71
2024/03/08 06:51:43;;;;;;;48.88;26.02;;;2.00;99.90;;;;;;5037673;28;20213;-73
2024/03/08 06:54:09;;;;;;;46.92;24.85;;;2.00;99.90;;;;;;5018062;28;20227;-72
2024/03/08 06:56:37;;;;;;;50.42;25.48;;;2.00;99.90;;;;;;5029074;28;20184;-72
2024/03/08 06:59:03;;;;;;;44.33;23.67;;;2.00;99.90;;;;;;5026500;28;20286;-70
2024/03/08 07:01:31;;;;;;;42.63;24.38;;;2.10;99.90;;;;;;5034591;28;20286;-73
2024/03/08 07:03:58;;;;;;;47.75;25.90;;;2.10;99.90;;;;;;5036130;28;20195;-72
2024/03/08 07:06:24;;;;;;;53.08;24.90;;;2.10;99.90;;;;;;5034935;28;20249;-79
2024/03/08 07:08:49;;;;;;;48.05;25.50;;;2.20;99.90;;;;;;5012953;28;20207;-74
2024/03/08 07:11:18;;;;;;;39.35;20.10;;;2.20;99.90;;;;;;5012389;28;20199;-74
2024/03/08 07:13:45;;;;;;;47.33;24.63;;;2.20;99.90;;;;;;5037684;28;20244;-72
2024/03/08 07:16:11;;;;;;;45.03;23.65;;;2.30;99.90;;;;;;5030055;28;20199;-72
2024/03/08 07:18:43;;;;;;;51.33;27.85;;;2.30;99.90;;;;;;5036111;28;20196;-73
2024/03/08 07:21:10;;;;;;;43.38;22.40;;;2.30;99.90;;;;;;4980626;28;20218;-72
2024/03/08 07:26:21;;;;;;;43.38;24.80;;;2.40;99.90;;;;;;5036791;28;20199;-75
2024/03/08 07:28:46;;;;;;;47.33;25.63;;;2.40;99.90;;;;;;5034442;28;20241;-71
2024/03/08 07:31:26;;;;;;;46.63;25.90;;;2.40;99.90;;;;;;5035423;28;20671;-71
2024/03/08 07:33:55;;;;;;;43.60;26.10;;;2.40;99.90;;;;;;5032799;28;20199;-71
2024/03/08 07:36:22;;;;;;;42.40;23.75;;;2.50;99.90;;;;;;5004074;28;20203;-72
2024/03/08 07:38:48;;;;;;;49.40;26.67;;;2.50;99.90;;;;;;5034364;28;20647;-71
2024/03/08 07:41:16;;;;;;;43.65;25.42;;;2.60;99.90;;;;;;5011260;28;20194;-71
2024/03/08 07:43:42;;;;;;;43.40;23.85;;;2.60;99.90;;;;;;5032904;28;20190;-75
2024/03/08 07:46:10;;;;;;;46.63;24.77;;;2.70;99.90;;;;;;5033918;28;20670;-72
2024/03/08 07:48:39;;;;;;;46.25;24.88;;;2.70;99.90;;;;;;5023729;28;20212;-71
2024/03/08 07:51:05;;;;;;;46.30;25.98;;;2.80;99.90;;;;;;5034295;28;20666;-72
2024/03/08 07:53:31;;;;;;;46.05;24.40;;;2.80;99.90;;;;;;5033784;28;20199;-71
2024/03/08 07:55:57;;;;;;;40.28;23.08;;;2.80;99.90;;;;;;5029654;28;20180;-73
2024/03/08 07:58:23;;;;;;;44.40;25.67;;;2.80;99.90;;;;;;5031532;28;20199;-72
2024/03/08 08:00:49;;;;;;;49.25;27.92;;;2.90;99.90;;;;;;5013313;28;20187;-73
2024/03/08 08:03:15;;;;;;;47.97;26.63;;;3.00;99.90;;;;;;5026224;28;20192;-70
2024/03/08 08:05:42;;;;;;;45.35;25.55;;;3.00;99.90;;;;;;5014823;28;21146;-71
2024/03/08 08:08:10;;;;;;;47.17;24.65;;;3.00;99.90;;;;;;5034129;28;20223;-72
2024/03/08 08:10:37;;;;;;;48.55;26.35;;;3.10;99.90;;;;;;5025799;28;20203;-73
2024/03/08 08:13:04;;;;;;;43.65;25.25;;;3.10;99.90;;;;;;5032722;28;20228;-72
2024/03/08 08:15:30;;;;;;;44.78;26.27;;;3.20;99.90;;;;;;5029083;28;20203;-73
2024/03/08 08:17:56;;;;;;;42.25;25.23;;;3.30;99.90;;;;;;5033666;28;20206;-71
2024/03/08 08:20:23;;;;;;;47.75;26.90;;;3.30;99.90;;;;;;5032129;28;20199;-73
2024/03/08 08:22:48;;;;;;;48.08;24.42;;;3.40;99.90;;;;;;5034821;28;20256;-75
2024/03/08 08:25:15;;;;;;;51.53;27.55;;;3.40;99.90;;;;;;5028538;28;20191;-72
2024/03/08 08:27:42;;;;;;;49.92;26.70;;;3.50;99.90;;;;;;5034002;28;20246;-73
2024/03/08 08:30:09;;;;;;;48.85;27.50;;;3.50;99.90;;;;;;5029914;28;20317;-74
2024/03/08 08:32:44;;;;;;;49.15;27.70;;;3.60;99.90;;;;;;5034347;28;20270;-72
2024/03/08 08:35:12;;;;;;;40.22;22.65;;;3.60;99.90;;;;;;5036533;28;20216;-71
2024/03/08 08:37:41;;;;;;;46.35;26.60;;;3.70;99.90;;;;;;5032761;28;20233;-72
2024/03/08 08:40:14;;;;;;;46.97;28.05;;;3.70;99.90;;;;;;5029187;28;20219;-73
2024/03/08 08:42:40;;;;;;;46.50;26.88;;;3.80;99.90;;;;;;5031894;28;20199;-74
2024/03/08 08:45:10;;;;;;;33.92;19.23;;;3.80;99.90;;;;;;5030895;28;20187;-72
2024/03/08 08:47:36;;;;;;;42.90;26.08;;;3.80;99.90;;;;;;5027775;28;20184;-71
2024/03/08 08:50:04;;;;;;;42.47;23.23;;;3.90;99.90;;;;;;5035360;28;20202;-72
2024/03/08 08:52:34;;;;;;;43.30;26.30;;;3.90;99.90;;;;;;5030163;28;20645;-75
2024/03/08 08:55:00;;;;;;;42.33;26.08;;;4.00;99.90;;;;;;5031412;28;20264;-73
2024/03/08 08:57:27;;;;;;;46.20;27.60;;;4.00;99.90;;;;;;5033293;28;20237;-73
2024/03/08 08:59:53;;;;;;;45.58;26.30;;;4.10;99.90;;;;;;5027447;28;20682;-74
2024/03/08 09:02:20;;;;;;;48.15;27.10;;;4.10;99.90;;;;;;5029088;28;20192;-73
2024/03/08 09:04:47;;;;;;;41.92;24.75;;;4.20;99.90;;;;;;5033007;28;20613;-72
2024/03/08 09:07:14;;;;;;;46.33;25.63;;;4.20;99.90;;;;;;5028324;28;20184;-72
2024/03/08 09:09:41;;;;;;;46.05;26.58;;;4.20;99.90;;;;;;5032987;28;20219;-74
2024/03/08 09:12:07;;;;;;;37.20;22.60;;;4.30;99.90;;;;;;4995521;28;20211;-74
2024/03/08 09:14:33;;;;;;;42.85;26.65;;;4.30;99.90;;;;;;5025385;28;20223;-74
2024/03/08 09:16:59;;;;;;;46.03;26.42;;;4.40;99.90;;;;;;5032497;28;20206;-72
2024/03/08 09:19:25;;;;;;;43.17;26.92;;;4.40;99.90;;;;;;5036903;28;20193;-72
2024/03/08 09:21:51;;;;;;;42.95;24.52;;;4.40;99.90;;;;;;5011400;28;20207;-74
2024/03/08 09:24:17;;;;;;;44.47;25.27;;;4.50;99.90;;;;;;5025512;28;20551;-73
2024/03/08 09:26:43;;;;;;;44.13;26.30;;;4.50;99.90;;;;;;5030344;28;20300;-73
2024/03/08 09:29:10;;;;;;;42.03;24.73;;;4.50;99.90;;;;;;5034162;28;20214;-72
2024/03/08 09:31:37;;;;;;;42.97;24.10;;;4.60;99.90;;;;;;5010673;28;20192;-72
2024/03/08 09:34:04;;;;;;;44.67;26.77;;;4.70;99.90;;;;;;5031852;28;20200;-74
2024/03/08 09:36:32;;;;;;;52.55;27.88;;;4.80;99.90;;;;;;5033953;28;20188;-74
2024/03/08 09:38:58;;;;;;;42.67;26.67;;;4.80;99.90;;;;;;5027117;28;20597;-74
2024/03/08 09:41:24;;;;;;;46.17;27.30;;;4.90;99.90;;;;;;5028600;28;20202;-73
2024/03/08 09:43:50;;;;;;;47.08;26.35;;;5.00;99.90;;;;;;5027694;28;20195;-73
2024/03/08 09:46:19;;;;;;;50.55;26.75;;;5.00;99.90;;;;;;5030558;28;20253;-72
2024/03/08 09:48:46;;;;;;;47.90;28.23;;;5.00;99.90;;;;;;5032009;28;21390;-74
2024/03/08 09:51:15;;;;;;;42.88;24.10;;;5.10;99.90;;;;;;5032378;28;20922;-72
2024/03/08 09:53:43;;;;;;;41.35;23.50;;;5.10;99.90;;;;;;5033523;28;20185;-72
2024/03/08 09:56:12;;;;;;;45.20;24.98;;;5.20;99.90;;;;;;5026855;28;20192;-76
2024/03/08 09:58:53;;;;;;;41.45;24.23;;;5.20;99.90;;;;;;5034566;28;20191;-73
2024/03/08 10:01:19;;;;;;;45.47;27.95;;;5.20;99.90;;;;;;5037340;28;20206;-74
2024/03/08 10:03:49;;;;;;;44.33;27.08;;;5.30;99.90;;;;;;5034930;28;20196;-75
2024/03/08 10:06:14;;;;;;;50.75;30.20;;;5.30;99.90;;;;;;5035628;28;20195;-73
2024/03/08 10:08:40;;;;;;;67.20;27.92;;;5.40;99.90;;;;;;5029748;28;20219;-73
2024/03/08 10:11:07;;;;;;;42.95;26.52;;;5.50;99.90;;;;;;5028656;28;20198;-74
2024/03/08 10:13:32;;;;;;;48.95;27.25;;;5.50;99.90;;;;;;5035356;28;20182;-75
2024/03/08 10:16:00;;;;;;;44.90;27.88;;;5.50;99.90;;;;;;5032386;28;20188;-73
2024/03/08 10:18:26;;;;;;;47.22;29.17;;;5.60;99.90;;;;;;5031100;28;20254;-73
2024/03/08 10:21:07;;;;;;;48.03;29.00;;;5.60;99.90;;;;;;5035228;28;20231;-73
2024/03/08 10:23:33;;;;;;;40.67;22.88;;;5.60;99.90;;;;;;5034840;28;20241;-74
2024/03/08 10:26:15;;;;;;;53.10;27.92;;;5.70;99.90;;;;;;5032450;28;20195;-73
2024/03/08 10:28:52;;;;;;;35.75;21.65;;;5.70;99.90;;;;;;5034776;28;20321;-75
2024/03/08 10:31:19;;;;;;;44.20;26.73;;;5.70;99.90;;;;;;5037966;28;20693;-74
2024/03/08 10:33:45;;;;;;;43.10;27.48;;;5.80;99.90;;;;;;5036028;28;20187;-73
2024/03/08 10:36:13;;;;;;;47.30;28.67;;;5.80;99.90;;;;;;5032370;28;20360;-75
2024/03/08 10:38:41;;;;;;;47.92;27.52;;;5.90;99.90;;;;;;5033219;28;20195;-73
2024/03/08 10:41:14;;;;;;;46.17;28.92;;;5.90;99.90;;;;;;5031888;28;20211;-73
2024/03/08 10:44:19;;;;;;;46.92;26.58;;;6.00;99.90;;;;;;5013913;28;20241;-72
2024/03/08 10:47:00;;;;;;;44.65;24.35;;;6.10;99.90;;;;;;5029990;28;20264;-73
2024/03/08 10:49:48;;;;;;;46.17;28.45;;;6.10;99.90;;;;;;5034617;28;20211;-73
2024/03/08 10:52:17;;;;;;;46.25;27.92;;;6.20;99.90;;;;;;5030185;28;20186;-76
2024/03/08 10:54:45;;;;;;;53.97;29.45;;;6.30;99.90;;;;;;5033653;28;20187;-74
2024/03/08 10:57:13;;;;;;;49.80;28.50;;;6.30;99.90;;;;;;5031588;28;20217;-74
2024/03/08 10:59:39;;;;;;;48.40;27.92;;;6.40;99.90;;;;;;5029335;28;20187;-75
2024/03/08 11:02:05;;;;;;;53.65;28.75;;;6.40;99.90;;;;;;5032465;28;20223;-75
2024/03/08 11:04:33;;;;;;;50.17;28.65;;;6.40;99.90;;;;;;5028987;28;20315;-75
2024/03/08 11:07:05;;;;;;;51.40;27.92;;;6.50;99.90;;;;;;5037792;28;20194;-73
2024/03/08 11:09:42;;;;;;;49.65;28.77;;;6.60;99.90;;;;;;5026528;28;20326;-75
2024/03/08 11:12:25;;;;;;;49.60;27.85;;;6.60;99.90;;;;;;5031381;28;20187;-75
2024/03/08 11:15:04;;;;;;;50.00;28.05;;;6.70;99.90;;;;;;5033431;28;20191;-71
2024/03/08 11:17:33;;;;;;;43.45;26.50;;;6.80;99.90;;;;;;5010775;28;20207;-74
2024/03/08 11:20:01;;;;;;;44.80;29.52;;;6.80;99.90;;;;;;5035539;28;20195;-72
2024/03/08 11:22:33;;;;;;;45.70;27.65;;;6.90;99.90;;;;;;5011905;28;20873;-73
2024/03/08 11:25:09;;;;;;;38.17;23.45;;;6.90;99.90;;;;;;5031539;28;20201;-72
2024/03/08 11:27:38;;;;;;;45.67;27.65;;;7.00;99.90;;;;;;5032256;28;20250;-72
2024/03/08 11:30:11;;;;;;;45.05;28.95;;;7.00;99.90;;;;;;5031267;28;20176;-72
2024/03/08 11:32:38;;;;;;;46.15;28.15;;;7.10;99.90;;;;;;5035121;28;20183;-72
2024/03/08 11:35:08;;;;;;;48.80;29.05;;;7.10;99.90;;;;;;5028598;28;20274;-75
2024/03/08 11:37:35;;;;;;;46.78;27.30;;;7.20;99.90;;;;;;5030279;28;20183;-73
2024/03/08 11:40:04;;;;;;;46.40;27.13;;;7.20;99.90;;;;;;5001916;28;20297;-72
2024/03/08 11:42:30;;;;;;;49.58;29.20;;;7.30;99.90;;;;;;5034381;28;20596;-74
2024/03/08 11:44:57;;;;;;;48.17;29.60;;;7.40;99.90;;;;;;5029378;28;21303;-74
2024/03/08 11:47:23;;;;;;;47.08;28.42;;;7.40;99.90;;;;;;5032902;28;20194;-73
2024/03/08 11:49:49;;;;;;;45.53;27.90;;;7.50;99.90;;;;;;5033578;28;20200;-72
2024/03/08 11:52:17;;;;;;;46.45;28.88;;;7.60;99.90;;;;;;5032493;28;20183;-72
2024/03/08 11:54:50;;;;;;;47.80;29.75;;;7.60;99.90;;;;;;5029753;28;20198;-74
2024/03/08 11:57:18;;;;;;;45.90;30.00;;;7.60;99.90;;;;;;5030314;28;20715;-73
2024/03/08 11:59:51;;;;;;;43.83;28.85;;;7.60;99.90;;;;;;5025363;28;20200;-72
2024/03/08 12:02:19;;;;;;;47.85;29.38;;;7.70;99.90;;;;;;5029613;28;20191;-73
2024/03/08 12:04:46;;;;;;;42.08;28.80;;;7.70;99.90;;;;;;5005724;28;20191;-75
2024/03/08 12:07:14;;;;;;;46.67;29.30;;;7.80;99.90;;;;;;5031050;28;20754;-74
2024/03/08 12:09:40;;;;;;;46.83;30.05;;;7.80;99.90;;;;;;5027724;28;20268;-74
2024/03/08 12:12:07;;;;;;;43.95;29.08;;;7.80;99.90;;;;;;5015857;28;20192;-74
2024/03/08 12:14:34;;;;;;;42.65;28.00;;;7.80;99.90;;;;;;5029539;28;20517;-73
2024/03/08 12:17:00;;;;;;;44.30;27.80;;;7.90;99.90;;;;;;5033276;28;20256;-72
2024/03/08 12:19:28;;;;;;;44.67;28.65;;;7.90;99.90;;;;;;5029141;28;20191;-74
2024/03/08 12:21:54;;;;;;;47.28;29.25;;;7.90;99.90;;;;;;5030878;28;20200;-74
2024/03/08 12:24:21;;;;;;;48.47;30.17;;;8.00;99.90;;;;;;5026561;28;20225;-73
2024/03/08 12:26:51;;;;;;;50.50;29.58;;;8.00;99.90;;;;;;5010855;28;20235;-74
2024/03/08 12:29:27;;;;;;;46.90;29.45;;;8.10;99.90;;;;;;5005852;28;20223;-75
2024/03/08 12:31:58;;;;;;;46.72;26.15;;;8.10;99.90;;;;;;5026254;28;20197;-73
2024/03/08 12:34:24;;;;;;;45.25;28.67;;;8.20;99.90;;;;;;5033702;28;20660;-73
2024/03/08 12:36:53;;;;;;;42.97;27.45;;;8.20;99.90;;;;;;5033412;28;20299;-72
2024/03/08 12:39:26;;;;;;;39.67;25.40;;;8.20;99.90;;;;;;5033497;28;20237;-75
2024/03/08 12:41:53;;;;;;;46.00;28.77;;;8.20;99.90;;;;;;5035545;28;20655;-72